sensor_id;sensor_type;location;lat;lon;timestamp;temperature;humidity
74540;SHT31;66042;51.090;-115.340;2023-05-24T00:01:25;30.07;17.70
74540;SHT31;66042;51.090;-115.340;2023-05-24T00:03:53;29.01;18.37
74540;SHT31;66042;51.090;-115.340;2023-05-24T00:06:26;27.94;19.29
74540;SHT31;66042;51.090;-115.340;2023-05-24T00:08:53;27.23;20.62
74540;SHT31;66042;51.090;-115.340;2023-05-24T00:11:20;26.56;21.41
74540;SHT31;66042;51.090;-115.340;2023-05-24T00:13:47;25.85;22.28
74540;SHT31;66042;51.090;-115.340;2023-05-24T00:16:15;25.27;23.12
74540;SHT31;66042;51.090;-115.340;2023-05-24T00:18:42;24.86;24.11
74540;SHT31;66042;51.090;-115.340;2023-05-24T00:21:12;24.32;25.56
74540;SHT31;66042;51.090;-115.340;2023-05-24T00:23:39;24.01;26.20
74540;SHT31;66042;51.090;-115.340;2023-05-24T00:26:06;23.64;26.02
74540;SHT31;66042;51.090;-115.340;2023-05-24T00:28:34;23.69;26.36
74540;SHT31;66042;51.090;-115.340;2023-05-24T00:31:01;24.80;25.88
74540;SHT31;66042;51.090;-115.340;2023-05-24T00:33:28;26.25;24.63
74540;SHT31;66042;51.090;-115.340;2023-05-24T00:35:56;26.51;24.27
74540;SHT31;66042;51.090;-115.340;2023-05-24T00:38:23;26.56;23.99
74540;SHT31;66042;51.090;-115.340;2023-05-24T00:40:51;26.57;23.94
74540;SHT31;66042;51.090;-115.340;2023-05-24T00:43:22;26.77;23.85
74540;SHT31;66042;51.090;-115.340;2023-05-24T00:46:06;26.61;23.70
74540;SHT31;66042;51.090;-115.340;2023-05-24T00:49:08;26.13;23.64
74540;SHT31;66042;51.090;-115.340;2023-05-24T00:51:36;25.75;23.79
74540;SHT31;66042;51.090;-115.340;2023-05-24T00:54:03;25.45;23.93
74540;SHT31;66042;51.090;-115.340;2023-05-24T00:56:31;25.17;24.22
74540;SHT31;66042;51.090;-115.340;2023-05-24T00:58:59;24.85;24.45
74540;SHT31;66042;51.090;-115.340;2023-05-24T01:01:26;24.52;24.63
74540;SHT31;66042;51.090;-115.340;2023-05-24T01:03:55;24.13;24.93
74540;SHT31;66042;51.090;-115.340;2023-05-24T01:06:24;23.83;25.54
74540;SHT31;66042;51.090;-115.340;2023-05-24T01:09:06;23.62;26.04
74540;SHT31;66042;51.090;-115.340;2023-05-24T01:12:19;23.42;26.51
74540;SHT31;66042;51.090;-115.340;2023-05-24T01:18:23;23.24;27.14
74540;SHT31;66042;51.090;-115.340;2023-05-24T01:21:14;23.19;27.18
74540;SHT31;66042;51.090;-115.340;2023-05-24T01:29:36;24.54;26.20
74540;SHT31;66042;51.090;-115.340;2023-05-24T01:32:03;25.52;25.22
74540;SHT31;66042;51.090;-115.340;2023-05-24T01:34:32;26.40;24.55
74540;SHT31;66042;51.090;-115.340;2023-05-24T01:36:59;27.17;23.86
74540;SHT31;66042;51.090;-115.340;2023-05-24T01:39:26;27.33;23.39
74540;SHT31;66042;51.090;-115.340;2023-05-24T01:50:31;25.10;24.70
74540;SHT31;66042;51.090;-115.340;2023-05-24T01:53:06;24.52;25.01
74540;SHT31;66042;51.090;-115.340;2023-05-24T01:55:38;24.08;25.63
74540;SHT31;66042;51.090;-115.340;2023-05-24T01:58:06;23.66;26.22
74540;SHT31;66042;51.090;-115.340;2023-05-24T02:00:38;23.27;26.74
74540;SHT31;66042;51.090;-115.340;2023-05-24T02:03:06;22.96;27.26
74540;SHT31;66042;51.090;-115.340;2023-05-24T02:05:34;22.62;27.53
74540;SHT31;66042;51.090;-115.340;2023-05-24T02:08:03;22.28;27.94
74540;SHT31;66042;51.090;-115.340;2023-05-24T02:10:30;21.95;28.32
74540;SHT31;66042;51.090;-115.340;2023-05-24T02:12:57;21.56;28.87
74540;SHT31;66042;51.090;-115.340;2023-05-24T02:15:24;21.33;28.89
74540;SHT31;66042;51.090;-115.340;2023-05-24T02:17:54;21.08;29.21
74540;SHT31;66042;51.090;-115.340;2023-05-24T02:20:22;20.83;29.83
74540;SHT31;66042;51.090;-115.340;2023-05-24T02:22:49;20.63;30.09
74540;SHT31;66042;51.090;-115.340;2023-05-24T02:25:16;20.45;30.62
74540;SHT31;66042;51.090;-115.340;2023-05-24T02:27:43;20.30;31.07
74540;SHT31;66042;51.090;-115.340;2023-05-24T02:30:11;20.15;31.49
74540;SHT31;66042;51.090;-115.340;2023-05-24T02:32:38;19.98;31.82
74540;SHT31;66042;51.090;-115.340;2023-05-24T02:35:06;19.78;32.05
74540;SHT31;66042;51.090;-115.340;2023-05-24T02:37:34;19.60;32.41
74540;SHT31;66042;51.090;-115.340;2023-05-24T02:40:01;19.42;32.74
74540;SHT31;66042;51.090;-115.340;2023-05-24T02:42:28;19.23;33.26
74540;SHT31;66042;51.090;-115.340;2023-05-24T02:44:55;19.07;33.69
74540;SHT31;66042;51.090;-115.340;2023-05-24T02:47:22;18.91;34.02
74540;SHT31;66042;51.090;-115.340;2023-05-24T02:49:51;18.76;34.48
74540;SHT31;66042;51.090;-115.340;2023-05-24T02:52:19;18.60;34.80
74540;SHT31;66042;51.090;-115.340;2023-05-24T02:54:47;18.45;35.07
74540;SHT31;66042;51.090;-115.340;2023-05-24T02:57:15;18.30;35.34
74540;SHT31;66042;51.090;-115.340;2023-05-24T02:59:42;18.15;35.63
74540;SHT31;66042;51.090;-115.340;2023-05-24T03:02:09;18.02;35.95
74540;SHT31;66042;51.090;-115.340;2023-05-24T03:04:39;17.91;36.33
74540;SHT31;66042;51.090;-115.340;2023-05-24T03:07:06;17.80;36.73
74540;SHT31;66042;51.090;-115.340;2023-05-24T03:09:33;17.71;37.20
74540;SHT31;66042;51.090;-115.340;2023-05-24T03:12:00;17.61;37.55
74540;SHT31;66042;51.090;-115.340;2023-05-24T03:14:27;17.47;37.53
74540;SHT31;66042;51.090;-115.340;2023-05-24T03:16:54;17.30;37.64
74540;SHT31;66042;51.090;-115.340;2023-05-24T03:19:21;17.16;37.79
74540;SHT31;66042;51.090;-115.340;2023-05-24T03:21:48;17.09;38.01
74540;SHT31;66042;51.090;-115.340;2023-05-24T03:24:15;17.02;38.41
74540;SHT31;66042;51.090;-115.340;2023-05-24T03:26:42;16.97;38.75
74540;SHT31;66042;51.090;-115.340;2023-05-24T03:29:10;16.91;39.06
74540;SHT31;66042;51.090;-115.340;2023-05-24T03:31:37;16.86;39.26
74540;SHT31;66042;51.090;-115.340;2023-05-24T03:34:04;16.81;39.48
74540;SHT31;66042;51.090;-115.340;2023-05-24T03:36:31;16.75;39.62
74540;SHT31;66042;51.090;-115.340;2023-05-24T03:38:58;16.70;39.74
74540;SHT31;66042;51.090;-115.340;2023-05-24T03:41:25;16.66;39.87
74540;SHT31;66042;51.090;-115.340;2023-05-24T03:43:52;16.61;40.18
74540;SHT31;66042;51.090;-115.340;2023-05-24T03:46:19;16.56;40.43
74540;SHT31;66042;51.090;-115.340;2023-05-24T03:48:47;16.48;40.45
74540;SHT31;66042;51.090;-115.340;2023-05-24T03:51:14;16.40;40.51
74540;SHT31;66042;51.090;-115.340;2023-05-24T03:53:43;16.35;40.77
74540;SHT31;66042;51.090;-115.340;2023-05-24T03:56:09;16.26;40.94
74540;SHT31;66042;51.090;-115.340;2023-05-24T03:58:37;16.19;41.09
74540;SHT31;66042;51.090;-115.340;2023-05-24T04:01:04;16.13;41.23
74540;SHT31;66042;51.090;-115.340;2023-05-24T04:03:32;16.06;41.31
74540;SHT31;66042;51.090;-115.340;2023-05-24T04:05:58;15.99;41.44
74540;SHT31;66042;51.090;-115.340;2023-05-24T04:08:25;15.93;41.57
74540;SHT31;66042;51.090;-115.340;2023-05-24T04:10:52;15.87;41.71
74540;SHT31;66042;51.090;-115.340;2023-05-24T04:13:19;15.80;41.82
74540;SHT31;66042;51.090;-115.340;2023-05-24T04:15:46;15.73;41.86
74540;SHT31;66042;51.090;-115.340;2023-05-24T04:18:13;15.65;41.94
74540;SHT31;66042;51.090;-115.340;2023-05-24T04:20:44;15.59;42.04
74540;SHT31;66042;51.090;-115.340;2023-05-24T04:23:12;15.52;42.27
74540;SHT31;66042;51.090;-115.340;2023-05-24T04:25:39;15.41;42.52
74540;SHT31;66042;51.090;-115.340;2023-05-24T04:28:07;15.33;42.63
74540;SHT31;66042;51.090;-115.340;2023-05-24T04:30:34;15.23;42.78
74540;SHT31;66042;51.090;-115.340;2023-05-24T04:33:02;15.16;42.97
74540;SHT31;66042;51.090;-115.340;2023-05-24T04:35:29;15.09;43.00
74540;SHT31;66042;51.090;-115.340;2023-05-24T04:37:56;15.01;43.11
74540;SHT31;66042;51.090;-115.340;2023-05-24T04:40:24;14.97;43.31
74540;SHT31;66042;51.090;-115.340;2023-05-24T04:42:51;14.91;43.44
74540;SHT31;66042;51.090;-115.340;2023-05-24T04:45:17;14.85;43.60
74540;SHT31;66042;51.090;-115.340;2023-05-24T04:47:44;14.79;43.75
74540;SHT31;66042;51.090;-115.340;2023-05-24T04:50:10;14.73;43.86
74540;SHT31;66042;51.090;-115.340;2023-05-24T04:52:37;14.69;43.96
74540;SHT31;66042;51.090;-115.340;2023-05-24T04:55:04;14.63;44.07
74540;SHT31;66042;51.090;-115.340;2023-05-24T04:57:31;14.58;44.14
74540;SHT31;66042;51.090;-115.340;2023-05-24T05:00:00;14.50;44.20
74540;SHT31;66042;51.090;-115.340;2023-05-24T05:02:29;14.45;44.33
74540;SHT31;66042;51.090;-115.340;2023-05-24T05:04:56;14.41;44.40
74540;SHT31;66042;51.090;-115.340;2023-05-24T05:07:22;14.35;44.48
74540;SHT31;66042;51.090;-115.340;2023-05-24T05:09:49;14.28;44.64
74540;SHT31;66042;51.090;-115.340;2023-05-24T05:12:16;14.22;44.65
74540;SHT31;66042;51.090;-115.340;2023-05-24T05:14:43;14.16;44.67
74540;SHT31;66042;51.090;-115.340;2023-05-24T05:17:09;14.11;44.79
74540;SHT31;66042;51.090;-115.340;2023-05-24T05:19:36;14.08;44.91
74540;SHT31;66042;51.090;-115.340;2023-05-24T05:22:03;14.03;45.00
74540;SHT31;66042;51.090;-115.340;2023-05-24T05:24:30;13.97;45.09
74540;SHT31;66042;51.090;-115.340;2023-05-24T05:26:57;13.91;45.22
74540;SHT31;66042;51.090;-115.340;2023-05-24T05:29:24;13.80;45.48
74540;SHT31;66042;51.090;-115.340;2023-05-24T05:31:51;13.77;45.64
74540;SHT31;66042;51.090;-115.340;2023-05-24T05:34:18;13.74;45.86
74540;SHT31;66042;51.090;-115.340;2023-05-24T05:36:45;13.69;45.95
74540;SHT31;66042;51.090;-115.340;2023-05-24T05:39:12;13.63;45.94
74540;SHT31;66042;51.090;-115.340;2023-05-24T05:41:39;13.59;46.04
74540;SHT31;66042;51.090;-115.340;2023-05-24T05:44:10;13.55;46.18
74540;SHT31;66042;51.090;-115.340;2023-05-24T05:46:38;13.51;46.34
74540;SHT31;66042;51.090;-115.340;2023-05-24T05:49:06;13.46;46.47
74540;SHT31;66042;51.090;-115.340;2023-05-24T05:51:34;13.33;46.64
74540;SHT31;66042;51.090;-115.340;2023-05-24T05:54:03;13.22;46.88
74540;SHT31;66042;51.090;-115.340;2023-05-24T05:56:33;13.21;46.94
74540;SHT31;66042;51.090;-115.340;2023-05-24T05:59:05;13.21;46.96
74540;SHT31;66042;51.090;-115.340;2023-05-24T06:01:31;13.18;47.08
74540;SHT31;66042;51.090;-115.340;2023-05-24T06:03:58;13.10;47.34
74540;SHT31;66042;51.090;-115.340;2023-05-24T06:06:25;13.10;47.37
74540;SHT31;66042;51.090;-115.340;2023-05-24T06:08:52;13.06;47.33
74540;SHT31;66042;51.090;-115.340;2023-05-24T06:11:18;12.99;47.14
74540;SHT31;66042;51.090;-115.340;2023-05-24T06:13:45;12.85;46.90
74540;SHT31;66042;51.090;-115.340;2023-05-24T06:16:13;12.70;47.14
74540;SHT31;66042;51.090;-115.340;2023-05-24T06:18:40;12.64;47.20
74540;SHT31;66042;51.090;-115.340;2023-05-24T06:21:07;12.62;47.05
74540;SHT31;66042;51.090;-115.340;2023-05-24T06:23:35;12.60;47.33
74540;SHT31;66042;51.090;-115.340;2023-05-24T06:26:03;12.62;47.26
74540;SHT31;66042;51.090;-115.340;2023-05-24T06:28:33;12.62;47.28
74540;SHT31;66042;51.090;-115.340;2023-05-24T06:31:01;12.59;47.32
74540;SHT31;66042;51.090;-115.340;2023-05-24T06:33:29;12.59;47.44
74540;SHT31;66042;51.090;-115.340;2023-05-24T06:35:56;12.56;47.48
74540;SHT31;66042;51.090;-115.340;2023-05-24T06:38:23;12.50;47.58
74540;SHT31;66042;51.090;-115.340;2023-05-24T06:40:50;12.46;47.63
74540;SHT31;66042;51.090;-115.340;2023-05-24T06:43:17;12.42;47.71
74540;SHT31;66042;51.090;-115.340;2023-05-24T06:45:45;12.40;47.84
74540;SHT31;66042;51.090;-115.340;2023-05-24T06:48:11;12.38;47.88
74540;SHT31;66042;51.090;-115.340;2023-05-24T06:50:38;12.34;48.06
74540;SHT31;66042;51.090;-115.340;2023-05-24T06:53:06;12.22;48.28
74540;SHT31;66042;51.090;-115.340;2023-05-24T06:55:34;12.09;48.54
74540;SHT31;66042;51.090;-115.340;2023-05-24T06:58:02;12.05;48.77
74540;SHT31;66042;51.090;-115.340;2023-05-24T07:00:29;12.03;48.86
74540;SHT31;66042;51.090;-115.340;2023-05-24T07:02:56;12.05;48.93
74540;SHT31;66042;51.090;-115.340;2023-05-24T07:05:23;12.06;48.92
74540;SHT31;66042;51.090;-115.340;2023-05-24T07:07:50;12.06;48.99
74540;SHT31;66042;51.090;-115.340;2023-05-24T07:10:17;12.04;49.00
74540;SHT31;66042;51.090;-115.340;2023-05-24T07:12:45;12.01;49.11
74540;SHT31;66042;51.090;-115.340;2023-05-24T07:15:12;11.97;49.20
74540;SHT31;66042;51.090;-115.340;2023-05-24T07:17:39;11.93;49.36
74540;SHT31;66042;51.090;-115.340;2023-05-24T07:20:06;11.91;49.50
74540;SHT31;66042;51.090;-115.340;2023-05-24T07:22:38;11.88;49.49
74540;SHT31;66042;51.090;-115.340;2023-05-24T07:25:06;11.85;49.53
74540;SHT31;66042;51.090;-115.340;2023-05-24T07:27:33;11.81;49.61
74540;SHT31;66042;51.090;-115.340;2023-05-24T07:30:01;11.78;49.76
74540;SHT31;66042;51.090;-115.340;2023-05-24T07:32:29;11.71;49.88
74540;SHT31;66042;51.090;-115.340;2023-05-24T07:34:57;11.67;49.90
74540;SHT31;66042;51.090;-115.340;2023-05-24T07:37:24;11.62;49.96
74540;SHT31;66042;51.090;-115.340;2023-05-24T07:39:51;11.58;50.01
74540;SHT31;66042;51.090;-115.340;2023-05-24T07:42:18;11.54;50.13
74540;SHT31;66042;51.090;-115.340;2023-05-24T07:44:46;11.47;50.15
74540;SHT31;66042;51.090;-115.340;2023-05-24T07:47:12;11.39;50.26
74540;SHT31;66042;51.090;-115.340;2023-05-24T07:49:40;11.32;50.36
74540;SHT31;66042;51.090;-115.340;2023-05-24T07:52:06;11.25;50.47
74540;SHT31;66042;51.090;-115.340;2023-05-24T07:54:33;11.21;50.52
74540;SHT31;66042;51.090;-115.340;2023-05-24T07:56:59;11.17;50.53
74540;SHT31;66042;51.090;-115.340;2023-05-24T07:59:27;11.12;50.63
74540;SHT31;66042;51.090;-115.340;2023-05-24T08:01:54;11.08;50.72
74540;SHT31;66042;51.090;-115.340;2023-05-24T08:04:26;11.04;50.79
74540;SHT31;66042;51.090;-115.340;2023-05-24T08:06:53;11.02;50.83
74540;SHT31;66042;51.090;-115.340;2023-05-24T08:09:22;10.98;50.81
74540;SHT31;66042;51.090;-115.340;2023-05-24T08:11:49;10.92;50.83
74540;SHT31;66042;51.090;-115.340;2023-05-24T08:14:16;10.87;50.89
74540;SHT31;66042;51.090;-115.340;2023-05-24T08:16:43;10.80;50.95
74540;SHT31;66042;51.090;-115.340;2023-05-24T08:19:10;10.76;51.02
74540;SHT31;66042;51.090;-115.340;2023-05-24T08:21:39;10.70;51.16
74540;SHT31;66042;51.090;-115.340;2023-05-24T08:24:06;10.63;51.31
74540;SHT31;66042;51.090;-115.340;2023-05-24T08:26:35;10.60;51.42
74540;SHT31;66042;51.090;-115.340;2023-05-24T08:29:02;10.53;51.61
74540;SHT31;66042;51.090;-115.340;2023-05-24T08:31:29;10.46;51.76
74540;SHT31;66042;51.090;-115.340;2023-05-24T08:33:58;10.41;51.87
74540;SHT31;66042;51.090;-115.340;2023-05-24T08:36:26;10.36;51.95
74540;SHT31;66042;51.090;-115.340;2023-05-24T08:38:52;10.33;51.90
74540;SHT31;66042;51.090;-115.340;2023-05-24T08:41:19;10.29;51.89
74540;SHT31;66042;51.090;-115.340;2023-05-24T08:43:46;10.26;51.90
74540;SHT31;66042;51.090;-115.340;2023-05-24T08:46:14;10.21;51.99
74540;SHT31;66042;51.090;-115.340;2023-05-24T08:48:45;10.14;52.21
74540;SHT31;66042;51.090;-115.340;2023-05-24T08:51:13;10.07;52.45
74540;SHT31;66042;51.090;-115.340;2023-05-24T08:53:41;10.09;52.55
74540;SHT31;66042;51.090;-115.340;2023-05-24T08:56:16;10.10;52.50
74540;SHT31;66042;51.090;-115.340;2023-05-24T08:58:44;10.08;52.47
74540;SHT31;66042;51.090;-115.340;2023-05-24T09:01:12;10.03;52.54
74540;SHT31;66042;51.090;-115.340;2023-05-24T09:03:41;10.00;52.66
74540;SHT31;66042;51.090;-115.340;2023-05-24T09:06:11;9.97;52.73
74540;SHT31;66042;51.090;-115.340;2023-05-24T09:08:42;9.93;52.72
74540;SHT31;66042;51.090;-115.340;2023-05-24T09:11:10;9.95;52.78
74540;SHT31;66042;51.090;-115.340;2023-05-24T09:13:40;9.91;52.81
74540;SHT31;66042;51.090;-115.340;2023-05-24T09:16:10;9.90;52.88
74540;SHT31;66042;51.090;-115.340;2023-05-24T09:18:38;9.90;52.99
74540;SHT31;66042;51.090;-115.340;2023-05-24T09:21:11;9.90;53.00
74540;SHT31;66042;51.090;-115.340;2023-05-24T09:23:39;9.83;52.99
74540;SHT31;66042;51.090;-115.340;2023-05-24T09:26:07;9.74;53.35
74540;SHT31;66042;51.090;-115.340;2023-05-24T09:28:34;9.77;53.28
74540;SHT31;66042;51.090;-115.340;2023-05-24T09:31:03;9.73;53.39
74540;SHT31;66042;51.090;-115.340;2023-05-24T09:33:30;9.75;53.62
74540;SHT31;66042;51.090;-115.340;2023-05-24T09:35:59;9.78;53.67
74540;SHT31;66042;51.090;-115.340;2023-05-24T09:38:28;9.79;53.80
74540;SHT31;66042;51.090;-115.340;2023-05-24T09:41:02;9.79;53.96
74540;SHT31;66042;51.090;-115.340;2023-05-24T09:43:31;9.79;54.05
74540;SHT31;66042;51.090;-115.340;2023-05-24T09:46:03;9.76;54.14
74540;SHT31;66042;51.090;-115.340;2023-05-24T09:48:30;9.76;54.18
74540;SHT31;66042;51.090;-115.340;2023-05-24T09:51:06;9.76;54.19
74540;SHT31;66042;51.090;-115.340;2023-05-24T09:53:37;9.75;54.19
74540;SHT31;66042;51.090;-115.340;2023-05-24T09:56:09;9.73;54.19
74540;SHT31;66042;51.090;-115.340;2023-05-24T09:58:36;9.68;54.20
74540;SHT31;66042;51.090;-115.340;2023-05-24T10:01:07;9.64;54.26
74540;SHT31;66042;51.090;-115.340;2023-05-24T10:03:36;9.63;54.39
74540;SHT31;66042;51.090;-115.340;2023-05-24T10:06:04;9.62;54.38
74540;SHT31;66042;51.090;-115.340;2023-05-24T10:08:35;9.59;54.40
74540;SHT31;66042;51.090;-115.340;2023-05-24T10:11:02;9.58;54.45
74540;SHT31;66042;51.090;-115.340;2023-05-24T10:13:30;9.55;54.59
74540;SHT31;66042;51.090;-115.340;2023-05-24T10:16:03;9.55;54.52
74540;SHT31;66042;51.090;-115.340;2023-05-24T10:18:30;9.56;54.55
74540;SHT31;66042;51.090;-115.340;2023-05-24T10:20:59;9.55;54.61
74540;SHT31;66042;51.090;-115.340;2023-05-24T10:23:31;9.52;54.69
74540;SHT31;66042;51.090;-115.340;2023-05-24T10:26:04;9.51;54.73
74540;SHT31;66042;51.090;-115.340;2023-05-24T10:28:40;9.49;54.65
74540;SHT31;66042;51.090;-115.340;2023-05-24T10:31:11;9.46;54.74
74540;SHT31;66042;51.090;-115.340;2023-05-24T10:33:52;9.44;54.81
74540;SHT31;66042;51.090;-115.340;2023-05-24T10:36:24;9.42;54.78
74540;SHT31;66042;51.090;-115.340;2023-05-24T10:38:51;9.44;54.77
74540;SHT31;66042;51.090;-115.340;2023-05-24T10:41:21;9.40;54.73
74540;SHT31;66042;51.090;-115.340;2023-05-24T10:43:52;9.37;54.85
74540;SHT31;66042;51.090;-115.340;2023-05-24T10:46:21;9.26;54.99
74540;SHT31;66042;51.090;-115.340;2023-05-24T10:48:58;9.10;55.42
74540;SHT31;66042;51.090;-115.340;2023-05-24T10:51:36;9.06;55.59
74540;SHT31;66042;51.090;-115.340;2023-05-24T10:54:16;8.95;55.74
74540;SHT31;66042;51.090;-115.340;2023-05-24T10:56:46;8.95;55.78
74540;SHT31;66042;51.090;-115.340;2023-05-24T11:02:08;9.01;55.66
74540;SHT31;66042;51.090;-115.340;2023-05-24T11:04:41;9.03;55.66
74540;SHT31;66042;51.090;-115.340;2023-05-24T11:07:14;9.05;55.58
74540;SHT31;66042;51.090;-115.340;2023-05-24T11:09:44;9.06;55.58
74540;SHT31;66042;51.090;-115.340;2023-05-24T11:12:21;9.09;55.50
74540;SHT31;66042;51.090;-115.340;2023-05-24T11:14:49;9.08;55.44
74540;SHT31;66042;51.090;-115.340;2023-05-24T11:17:20;9.07;55.41
74540;SHT31;66042;51.090;-115.340;2023-05-24T11:19:52;9.08;55.23
74540;SHT31;66042;51.090;-115.340;2023-05-24T11:22:22;9.03;55.31
74540;SHT31;66042;51.090;-115.340;2023-05-24T11:24:51;8.99;55.42
74540;SHT31;66042;51.090;-115.340;2023-05-24T11:27:18;8.95;55.67
74540;SHT31;66042;51.090;-115.340;2023-05-24T11:29:45;8.84;55.90
74540;SHT31;66042;51.090;-115.340;2023-05-24T11:32:17;8.80;56.00
74540;SHT31;66042;51.090;-115.340;2023-05-24T11:34:46;8.75;56.28
74540;SHT31;66042;51.090;-115.340;2023-05-24T11:37:14;8.73;56.30
74540;SHT31;66042;51.090;-115.340;2023-05-24T11:39:41;8.64;56.43
74540;SHT31;66042;51.090;-115.340;2023-05-24T11:42:08;8.63;56.43
74540;SHT31;66042;51.090;-115.340;2023-05-24T11:44:35;8.56;56.48
74540;SHT31;66042;51.090;-115.340;2023-05-24T11:47:03;8.59;56.45
74540;SHT31;66042;51.090;-115.340;2023-05-24T11:49:32;8.63;56.37
74540;SHT31;66042;51.090;-115.340;2023-05-24T11:52:00;8.69;56.22
74540;SHT31;66042;51.090;-115.340;2023-05-24T11:54:27;8.74;56.07
74540;SHT31;66042;51.090;-115.340;2023-05-24T11:56:57;8.77;55.99
74540;SHT31;66042;51.090;-115.340;2023-05-24T11:59:26;8.77;55.98
74540;SHT31;66042;51.090;-115.340;2023-05-24T12:01:57;8.75;55.94
74540;SHT31;66042;51.090;-115.340;2023-05-24T12:04:26;8.69;56.07
74540;SHT31;66042;51.090;-115.340;2023-05-24T12:06:56;8.66;56.15
74540;SHT31;66042;51.090;-115.340;2023-05-24T12:09:23;8.65;56.17
74540;SHT31;66042;51.090;-115.340;2023-05-24T12:11:51;8.63;56.23
74540;SHT31;66042;51.090;-115.340;2023-05-24T12:14:19;8.62;56.25
74540;SHT31;66042;51.090;-115.340;2023-05-24T12:16:52;8.61;56.26
74540;SHT31;66042;51.090;-115.340;2023-05-24T12:19:21;8.58;56.28
74540;SHT31;66042;51.090;-115.340;2023-05-24T12:21:59;8.56;56.39
74540;SHT31;66042;51.090;-115.340;2023-05-24T12:24:33;8.55;56.35
74540;SHT31;66042;51.090;-115.340;2023-05-24T12:27:02;8.54;56.42
74540;SHT31;66042;51.090;-115.340;2023-05-24T12:29:34;8.50;56.52
74540;SHT31;66042;51.090;-115.340;2023-05-24T12:32:05;8.48;56.62
74540;SHT31;66042;51.090;-115.340;2023-05-24T12:34:36;8.47;56.66
74540;SHT31;66042;51.090;-115.340;2023-05-24T12:37:07;8.47;56.67
74540;SHT31;66042;51.090;-115.340;2023-05-24T12:39:35;8.45;56.79
74540;SHT31;66042;51.090;-115.340;2023-05-24T12:42:02;8.37;56.99
74540;SHT31;66042;51.090;-115.340;2023-05-24T12:44:33;8.36;57.07
74540;SHT31;66042;51.090;-115.340;2023-05-24T12:47:02;8.38;57.07
74540;SHT31;66042;51.090;-115.340;2023-05-24T12:49:32;8.33;57.23
74540;SHT31;66042;51.090;-115.340;2023-05-24T12:51:59;8.35;57.29
74540;SHT31;66042;51.090;-115.340;2023-05-24T12:54:27;8.36;57.24
74540;SHT31;66042;51.090;-115.340;2023-05-24T12:56:55;8.34;57.34
74540;SHT31;66042;51.090;-115.340;2023-05-24T12:59:24;8.26;57.66
74540;SHT31;66042;51.090;-115.340;2023-05-24T13:01:52;8.26;57.64
74540;SHT31;66042;51.090;-115.340;2023-05-24T13:04:20;8.21;57.75
74540;SHT31;66042;51.090;-115.340;2023-05-24T13:06:50;8.26;57.73
74540;SHT31;66042;51.090;-115.340;2023-05-24T13:09:17;8.29;57.67
74540;SHT31;66042;51.090;-115.340;2023-05-24T13:11:46;8.23;57.75
74540;SHT31;66042;51.090;-115.340;2023-05-24T13:14:13;8.23;57.82
74540;SHT31;66042;51.090;-115.340;2023-05-24T13:16:41;8.12;58.05
74540;SHT31;66042;51.090;-115.340;2023-05-24T13:19:08;8.06;58.25
74540;SHT31;66042;51.090;-115.340;2023-05-24T13:21:35;7.95;58.61
74540;SHT31;66042;51.090;-115.340;2023-05-24T13:24:03;7.83;58.98
74540;SHT31;66042;51.090;-115.340;2023-05-24T13:26:30;7.79;59.11
74540;SHT31;66042;51.090;-115.340;2023-05-24T13:29:02;7.76;59.29
74540;SHT31;66042;51.090;-115.340;2023-05-24T13:31:33;7.80;59.32
74540;SHT31;66042;51.090;-115.340;2023-05-24T13:34:01;7.86;59.24
74540;SHT31;66042;51.090;-115.340;2023-05-24T13:36:28;7.95;59.07
74540;SHT31;66042;51.090;-115.340;2023-05-24T13:38:55;7.98;59.10
74540;SHT31;66042;51.090;-115.340;2023-05-24T13:41:22;8.09;58.88
74540;SHT31;66042;51.090;-115.340;2023-05-24T13:43:51;8.12;59.01
74540;SHT31;66042;51.090;-115.340;2023-05-24T13:46:18;8.12;58.96
74540;SHT31;66042;51.090;-115.340;2023-05-24T13:48:45;8.19;58.94
74540;SHT31;66042;51.090;-115.340;2023-05-24T13:51:12;8.22;58.92
74540;SHT31;66042;51.090;-115.340;2023-05-24T13:53:43;8.31;58.71
74540;SHT31;66042;51.090;-115.340;2023-05-24T13:56:12;8.38;58.65
74540;SHT31;66042;51.090;-115.340;2023-05-24T13:58:43;8.46;58.44
74540;SHT31;66042;51.090;-115.340;2023-05-24T14:01:09;8.53;58.30
74540;SHT31;66042;51.090;-115.340;2023-05-24T14:03:38;8.59;58.18
74540;SHT31;66042;51.090;-115.340;2023-05-24T14:06:06;8.65;58.13
74540;SHT31;66042;51.090;-115.340;2023-05-24T14:08:34;8.71;58.02
74540;SHT31;66042;51.090;-115.340;2023-05-24T14:11:01;8.77;58.00
74540;SHT31;66042;51.090;-115.340;2023-05-24T14:13:29;8.80;58.21
74540;SHT31;66042;51.090;-115.340;2023-05-24T14:15:56;8.80;58.32
74540;SHT31;66042;51.090;-115.340;2023-05-24T14:18:23;8.80;58.62
74540;SHT31;66042;51.090;-115.340;2023-05-24T14:20:50;8.77;58.52
74540;SHT31;66042;51.090;-115.340;2023-05-24T14:23:18;8.82;58.37
74540;SHT31;66042;51.090;-115.340;2023-05-24T14:25:45;8.89;58.35
74540;SHT31;66042;51.090;-115.340;2023-05-24T14:28:11;8.90;58.39
74540;SHT31;66042;51.090;-115.340;2023-05-24T14:30:38;8.96;58.28
74540;SHT31;66042;51.090;-115.340;2023-05-24T14:33:06;9.02;58.08
74540;SHT31;66042;51.090;-115.340;2023-05-24T14:35:33;9.11;58.03
74540;SHT31;66042;51.090;-115.340;2023-05-24T14:38:04;9.17;58.22
74540;SHT31;66042;51.090;-115.340;2023-05-24T14:40:33;9.20;58.56
74540;SHT31;66042;51.090;-115.340;2023-05-24T14:43:04;9.19;58.48
74540;SHT31;66042;51.090;-115.340;2023-05-24T14:45:35;9.26;58.22
74540;SHT31;66042;51.090;-115.340;2023-05-24T14:48:03;9.36;58.09
74540;SHT31;66042;51.090;-115.340;2023-05-24T14:50:31;9.46;57.83
74540;SHT31;66042;51.090;-115.340;2023-05-24T14:52:58;9.52;58.14
74540;SHT31;66042;51.090;-115.340;2023-05-24T14:55:25;9.51;57.92
74540;SHT31;66042;51.090;-115.340;2023-05-24T14:57:52;9.59;57.66
74540;SHT31;66042;51.090;-115.340;2023-05-24T15:00:19;9.67;57.54
74540;SHT31;66042;51.090;-115.340;2023-05-24T15:02:46;9.75;57.31
74540;SHT31;66042;51.090;-115.340;2023-05-24T15:05:12;9.80;57.13
74540;SHT31;66042;51.090;-115.340;2023-05-24T15:07:42;9.87;56.98
74540;SHT31;66042;51.090;-115.340;2023-05-24T15:10:08;9.93;56.95
74540;SHT31;66042;51.090;-115.340;2023-05-24T15:12:36;10.00;56.83
74540;SHT31;66042;51.090;-115.340;2023-05-24T15:15:03;10.04;56.79
74540;SHT31;66042;51.090;-115.340;2023-05-24T15:17:32;10.08;56.78
74540;SHT31;66042;51.090;-115.340;2023-05-24T15:19:59;10.15;56.43
74540;SHT31;66042;51.090;-115.340;2023-05-24T15:22:26;10.18;56.37